Terminal Aerodrome Forecast
Issued by NWS

Home | Current Version | Previous Version | Text Only | Print | Product List | Glossary On
Versions: 1 2 3 4 5 6 7 8 9 10 11 12 13
000
FTUS43 KJKL 291127
TAFSME
TAF
KSME 291127Z 2912/3012 18006KT P6SM VCSH SCT050 BKN090
     FM291700 22012G22KT P6SM VCTS SCT045CB BKN060
     FM300400 00000KT 4SM BR SCT050=

USA.gov is the U.S. government's official web portal to all federal, state and local government web resources and services.